Huvudsida
METAR-TAF:

METAR-TAF

Flygplatser :

Sirri Island Airport

Sirri, Iran

latitud: 25-54-34N, longitud: 054-32-22E, höjd: 13 m

Aktuellt väderrapport

Denna rapport gjordes för 41 minuter sedan, klockan 08:00 UTC
Vind 6 kt från nordost
Temperatur 24°C
Fuktighet 83%
Tryck 1019 hPa
Sikt: 5000 m
Få moln på en höjd av 2500 ft
fuktdis

METAR: OIBS 220800Z 05006KT 5000 BR FEW025 24/21 Q1019

Tid: 12:11 (08:41 UTC)


TAF: saknas

Aktuella väderrapporter och prognoser från 4000 flygplatser (METAR- och TAF-rapporter).

De tillgängliga stationerna syns som gula och röda prickar på kartan.

För musen över prickarna för att se namnen på stationerna.

Klicka sedan för att få väderrapporter och prognoser.

För att ändra kartan: Klicka på de gröna knapparna med ett svart kors på för att zooma in; den gröna knappen med ett streck på för att zooma ut; eller på de gröna pilarna för angränsande kartor.


METAR-TAF: